Time;durP1;ratioP1;P1;durP2;ratioP2;P2;SDS_P1;SDS_P2;PMS_P1;PMS_P2;Temp;Humidity;BMP_temperature;BMP_pressure;BME280_temperature;BME280_humidity;BME280_pressure;Samples;Min_cycle;Max_cycle;Signal;HPM_P1;HPM_P2
2022/10/16 00:01:38;;;;;;;10.52;3.67;;;14.00;99.90;;;;;;5113268;28;20176;-51
2022/10/16 00:04:04;;;;;;;8.57;4.53;;;14.00;99.90;;;;;;5114101;28;20176;-51
2022/10/16 00:06:30;;;;;;;8.77;3.45;;;14.00;99.90;;;;;;5114016;28;20177;-51
2022/10/16 00:08:57;;;;;;;8.85;3.70;;;14.10;99.90;;;;;;5113687;28;20190;-49
2022/10/16 00:11:28;;;;;;;7.82;3.45;;;14.10;99.90;;;;;;5113838;28;20164;-50
2022/10/16 00:13:59;;;;;;;5.85;2.83;;;14.10;99.90;;;;;;5113788;28;20196;-49
2022/10/16 00:16:26;;;;;;;5.82;2.88;;;14.10;99.90;;;;;;5113491;28;20222;-49
2022/10/16 00:18:51;;;;;;;4.30;2.67;;;14.10;99.90;;;;;;5095195;28;20175;-49
2022/10/16 00:21:20;;;;;;;6.55;2.90;;;14.10;99.90;;;;;;5113371;28;20197;-48
2022/10/16 00:23:46;;;;;;;7.90;3.03;;;14.20;99.90;;;;;;5113370;28;20225;-49
2022/10/16 00:26:15;;;;;;;4.68;2.05;;;14.20;99.90;;;;;;5113326;28;20172;-49
2022/10/16 00:28:41;;;;;;;4.68;2.13;;;14.20;99.90;;;;;;5113198;28;20175;-49
2022/10/16 00:31:11;;;;;;;4.40;2.08;;;14.10;99.90;;;;;;5113227;28;20173;-49
2022/10/16 00:33:38;;;;;;;5.70;1.90;;;14.20;99.90;;;;;;5113213;28;20164;-50
2022/10/16 00:36:05;;;;;;;8.43;2.33;;;14.10;99.90;;;;;;5113738;28;20176;-49
2022/10/16 00:38:31;;;;;;;5.47;2.45;;;14.10;99.90;;;;;;5113054;28;20169;-50
2022/10/16 00:40:57;;;;;;;8.65;2.75;;;14.00;99.90;;;;;;5112879;28;20207;-49
2022/10/16 00:43:47;;;;;;;6.78;3.15;;;14.00;99.90;;;;;;5113022;28;20160;-49
2022/10/16 00:46:23;;;;;;;8.40;3.33;;;14.00;99.90;;;;;;5112944;28;20219;-49
2022/10/16 00:48:57;;;;;;;10.50;5.25;;;13.90;99.90;;;;;;5112898;28;20255;-49
2022/10/16 00:51:28;;;;;;;6.40;3.90;;;14.00;99.90;;;;;;5112842;28;20168;-49
2022/10/16 00:53:55;;;;;;;7.32;3.60;;;13.90;99.90;;;;;;5112687;28;20691;-49
2022/10/16 00:56:20;;;;;;;5.13;2.35;;;13.90;99.90;;;;;;5112738;28;20208;-50
2022/10/16 00:58:46;;;;;;;8.18;2.65;;;13.90;99.90;;;;;;5112573;28;20247;-49
2022/10/16 01:01:11;;;;;;;9.70;2.95;;;13.70;99.90;;;;;;5112866;28;20249;-49
2022/10/16 01:03:37;;;;;;;2.92;2.00;;;13.80;99.90;;;;;;5112621;28;20588;-49
2022/10/16 01:06:28;;;;;;;13.15;4.05;;;13.70;99.90;;;;;;5112941;28;20165;-49
2022/10/16 01:09:29;;;;;;;8.63;3.70;;;13.70;99.90;;;;;;5112608;28;20157;-49
2022/10/16 01:12:16;;;;;;;3.22;2.75;;;13.70;99.90;;;;;;5098544;28;20176;-49
2022/10/16 01:14:56;;;;;;;3.97;2.80;;;13.70;99.90;;;;;;5111619;28;20163;-49
2022/10/16 01:17:44;;;;;;;3.90;2.55;;;13.60;99.90;;;;;;5112723;28;20172;-49
2022/10/16 01:20:39;;;;;;;12.00;5.47;;;13.60;99.90;;;;;;5072464;28;20251;-49
2022/10/16 01:23:19;;;;;;;2.58;1.98;;;13.70;99.90;;;;;;5108886;28;20169;-50
2022/10/16 01:26:03;;;;;;;12.38;5.18;;;13.60;99.90;;;;;;5112359;28;20276;-49
2022/10/16 01:28:50;;;;;;;9.05;4.63;;;13.60;99.90;;;;;;5112346;28;20171;-49
2022/10/16 01:31:20;;;;;;;24.38;6.95;;;13.60;99.90;;;;;;5112367;28;20183;-49
2022/10/16 01:33:51;;;;;;;6.38;2.40;;;13.60;99.90;;;;;;5112547;28;20176;-49
2022/10/16 01:36:25;;;;;;;3.28;1.85;;;13.70;99.90;;;;;;5112552;28;20607;-49
2022/10/16 01:38:56;;;;;;;7.95;3.92;;;13.70;99.90;;;;;;5112206;28;20172;-49
2022/10/16 01:41:29;;;;;;;3.58;2.00;;;13.60;99.90;;;;;;5112119;28;20200;-49
2022/10/16 01:44:08;;;;;;;5.32;2.15;;;13.70;99.90;;;;;;5112209;28;20630;-49
2022/10/16 01:46:37;;;;;;;3.42;2.10;;;13.70;99.90;;;;;;5112584;28;20168;-49
2022/10/16 01:49:05;;;;;;;4.60;2.40;;;13.70;99.90;;;;;;5112492;28;20239;-50
2022/10/16 01:51:32;;;;;;;4.20;2.40;;;13.70;99.90;;;;;;5077033;28;20632;-50
2022/10/16 01:54:01;;;;;;;2.97;2.05;;;13.70;99.90;;;;;;5112252;28;20175;-51
2022/10/16 01:56:28;;;;;;;3.17;1.90;;;13.70;99.90;;;;;;5111847;28;20697;-50
2022/10/16 01:59:06;;;;;;;1.67;1.58;;;13.70;99.90;;;;;;5112007;28;20175;-50
2022/10/16 02:01:34;;;;;;;3.05;1.60;;;13.70;99.90;;;;;;5112380;28;20667;-51
2022/10/16 02:04:15;;;;;;;14.65;4.70;;;13.70;99.90;;;;;;5111957;28;20252;-51
2022/10/16 02:06:41;;;;;;;3.35;1.80;;;13.80;99.90;;;;;;5111946;28;20171;-50
2022/10/16 02:09:06;;;;;;;4.30;2.33;;;13.80;99.90;;;;;;5111983;28;20165;-50
2022/10/16 02:11:32;;;;;;;4.18;1.85;;;13.70;99.90;;;;;;5112312;28;20161;-51
2022/10/16 02:14:03;;;;;;;2.95;1.60;;;13.80;99.90;;;;;;5111923;28;20169;-51
2022/10/16 02:16:41;;;;;;;3.08;2.28;;;13.80;99.90;;;;;;5111890;28;20196;-51
2022/10/16 02:19:08;;;;;;;3.10;1.83;;;13.80;99.90;;;;;;5112113;28;20176;-51
2022/10/16 02:21:41;;;;;;;2.08;1.80;;;13.90;99.90;;;;;;5112156;28;20201;-50
2022/10/16 02:24:21;;;;;;;2.38;1.70;;;13.90;99.90;;;;;;5111794;28;20176;-50
2022/10/16 02:27:05;;;;;;;2.75;2.10;;;13.90;99.90;;;;;;5115484;28;20176;-51
2022/10/16 02:29:32;;;;;;;3.13;2.00;;;13.90;99.90;;;;;;5115578;28;20188;-50
2022/10/16 02:32:03;;;;;;;3.67;1.73;;;13.90;99.90;;;;;;5115540;28;20225;-50
2022/10/16 02:34:31;;;;;;;3.47;2.28;;;13.90;99.90;;;;;;5115742;28;20513;-50
2022/10/16 02:36:59;;;;;;;2.60;2.40;;;13.90;99.90;;;;;;5115414;28;20172;-50
2022/10/16 02:39:28;;;;;;;3.30;3.00;;;13.90;99.90;;;;;;5115414;28;21083;-50
2022/10/16 02:41:53;;;;;;;3.35;2.72;;;14.00;99.90;;;;;;5115349;28;20161;-51
2022/10/16 02:44:19;;;;;;;2.92;2.67;;;14.00;99.90;;;;;;5115260;28;20169;-50
2022/10/16 02:46:44;;;;;;;3.17;2.50;;;14.00;99.90;;;;;;5115238;28;20251;-51
2022/10/16 02:49:10;;;;;;;4.07;3.22;;;13.90;99.90;;;;;;5096867;28;20172;-50
2022/10/16 02:51:35;;;;;;;4.25;2.55;;;13.90;99.90;;;;;;5115393;28;20179;-50
2022/10/16 02:54:02;;;;;;;2.08;1.70;;;13.90;99.90;;;;;;5115875;28;20205;-51
2022/10/16 02:56:29;;;;;;;5.95;2.58;;;13.90;99.90;;;;;;5115211;28;20168;-50
2022/10/16 02:58:55;;;;;;;4.60;2.20;;;13.80;99.90;;;;;;5115216;28;20226;-50
2022/10/16 03:01:20;;;;;;;2.70;2.50;;;13.80;99.90;;;;;;5114901;28;20200;-51
2022/10/16 03:03:46;;;;;;;4.60;3.13;;;13.80;99.90;;;;;;5114937;28;20173;-50
2022/10/16 03:06:11;;;;;;;2.65;2.13;;;13.80;99.90;;;;;;5114894;28;20260;-51
2022/10/16 03:08:37;;;;;;;4.55;1.90;;;13.80;99.90;;;;;;5114900;28;20244;-50
2022/10/16 03:11:02;;;;;;;4.22;2.75;;;13.80;99.90;;;;;;5115140;28;20160;-51
2022/10/16 03:13:28;;;;;;;6.65;1.83;;;13.70;99.90;;;;;;5114779;28;20572;-51
2022/10/16 03:15:53;;;;;;;1.98;1.63;;;13.70;99.90;;;;;;5114844;28;20635;-51
2022/10/16 03:18:19;;;;;;;2.13;1.60;;;13.70;99.90;;;;;;5114665;28;20168;-51
2022/10/16 03:20:44;;;;;;;2.58;1.33;;;13.60;99.90;;;;;;5114579;28;20525;-50
2022/10/16 03:23:10;;;;;;;1.67;1.50;;;13.60;99.90;;;;;;5114505;28;20160;-51
2022/10/16 03:25:36;;;;;;;2.45;2.20;;;13.60;99.90;;;;;;5114642;28;20198;-50
2022/10/16 03:28:01;;;;;;;3.50;2.15;;;13.60;99.90;;;;;;5096663;28;20544;-51
2022/10/16 03:30:27;;;;;;;2.95;1.80;;;13.60;99.90;;;;;;5114381;28;20165;-51
2022/10/16 03:32:53;;;;;;;3.20;2.28;;;13.60;99.90;;;;;;5114372;28;20195;-52
2022/10/16 03:35:23;;;;;;;3.95;2.70;;;13.60;99.90;;;;;;5114644;28;20179;-51
2022/10/16 03:37:49;;;;;;;7.35;2.95;;;13.70;99.90;;;;;;5113359;28;20165;-49
2022/10/16 03:40:15;;;;;;;4.15;2.35;;;13.70;99.90;;;;;;5114600;28;20208;-49
2022/10/16 03:42:43;;;;;;;3.17;2.40;;;13.70;99.90;;;;;;5114406;28;20172;-49
2022/10/16 03:45:09;;;;;;;5.85;1.67;;;13.60;99.90;;;;;;5114467;28;20173;-49
2022/10/16 03:47:35;;;;;;;3.50;1.63;;;13.60;99.90;;;;;;5114591;28;20175;-50
2022/10/16 03:50:00;;;;;;;3.03;2.30;;;13.60;99.90;;;;;;5114467;28;20260;-49
2022/10/16 03:52:26;;;;;;;4.82;3.20;;;13.50;99.90;;;;;;5114014;28;20167;-50
2022/10/16 03:54:52;;;;;;;9.13;3.63;;;13.60;99.90;;;;;;5113895;28;20636;-49
2022/10/16 03:57:17;;;;;;;3.55;2.15;;;13.60;99.90;;;;;;5113908;28;20223;-49
2022/10/16 03:59:43;;;;;;;4.13;3.08;;;13.60;99.90;;;;;;5113894;28;20222;-49
2022/10/16 04:02:09;;;;;;;5.55;4.25;;;13.60;99.90;;;;;;5113800;28;20173;-49
2022/10/16 04:04:35;;;;;;;4.07;3.42;;;13.70;99.90;;;;;;5114137;28;20655;-51
2022/10/16 04:07:00;;;;;;;4.75;3.45;;;13.60;99.90;;;;;;5114152;28;20176;-49
2022/10/16 04:09:26;;;;;;;7.40;6.63;;;13.60;99.90;;;;;;5113646;28;20175;-51
2022/10/16 04:11:52;;;;;;;8.93;5.15;;;13.70;99.90;;;;;;5113548;28;20176;-51
2022/10/16 04:14:17;;;;;;;3.65;2.30;;;13.70;99.90;;;;;;5113588;28;20188;-51
2022/10/16 04:16:43;;;;;;;3.03;1.63;;;13.70;99.90;;;;;;5113526;28;20172;-51
2022/10/16 04:19:10;;;;;;;4.15;1.58;;;13.60;99.90;;;;;;5113669;28;20173;-52
2022/10/16 04:21:36;;;;;;;1.77;1.35;;;13.60;99.90;;;;;;5113628;28;20330;-51
2022/10/16 04:24:02;;;;;;;5.05;2.20;;;13.50;99.90;;;;;;5113761;28;20693;-49
2022/10/16 04:26:27;;;;;;;2.58;2.25;;;13.50;99.90;;;;;;5113310;28;20210;-50
2022/10/16 04:28:53;;;;;;;3.05;2.20;;;13.50;99.90;;;;;;5113343;28;20164;-50
2022/10/16 04:31:20;;;;;;;2.80;1.40;;;13.50;99.90;;;;;;5113517;28;20247;-50
2022/10/16 04:33:46;;;;;;;6.28;1.67;;;13.40;99.90;;;;;;5113226;28;20218;-49
2022/10/16 04:36:12;;;;;;;3.17;1.67;;;13.40;99.90;;;;;;5113243;28;20157;-49
2022/10/16 04:38:39;;;;;;;2.85;1.98;;;13.40;99.90;;;;;;5113128;28;20177;-49
2022/10/16 04:41:05;;;;;;;2.65;1.50;;;13.40;99.90;;;;;;5113234;28;20299;-49
2022/10/16 04:43:31;;;;;;;2.03;1.73;;;13.40;99.90;;;;;;5113368;28;20255;-49
2022/10/16 04:45:57;;;;;;;8.75;2.55;;;13.40;99.90;;;;;;5112927;28;20247;-49
2022/10/16 04:48:22;;;;;;;4.05;2.03;;;13.30;99.90;;;;;;5112985;28;20167;-49
2022/10/16 04:50:48;;;;;;;2.20;1.40;;;13.40;99.90;;;;;;5112927;28;20169;-49
2022/10/16 04:53:13;;;;;;;2.72;1.45;;;13.40;99.90;;;;;;5094524;28;20209;-49
2022/10/16 04:55:41;;;;;;;2.38;1.75;;;13.30;99.90;;;;;;5112899;28;20188;-49
2022/10/16 04:58:07;;;;;;;1.88;1.42;;;13.40;99.90;;;;;;5112627;28;20224;-49
2022/10/16 05:00:33;;;;;;;6.35;3.50;;;13.40;99.90;;;;;;5113054;28;20233;-49
2022/10/16 05:03:00;;;;;;;7.10;3.03;;;13.30;99.90;;;;;;5112682;28;20156;-49
2022/10/16 05:05:26;;;;;;;5.47;3.22;;;13.30;99.90;;;;;;5112955;28;20180;-49
2022/10/16 05:07:52;;;;;;;3.92;2.42;;;13.30;99.90;;;;;;5112598;28;20172;-50
2022/10/16 05:10:18;;;;;;;9.18;3.22;;;13.30;99.90;;;;;;5112547;28;20165;-49
2022/10/16 05:12:43;;;;;;;3.92;1.73;;;13.30;99.90;;;;;;5112608;28;20171;-49
2022/10/16 05:15:09;;;;;;;6.05;3.35;;;13.30;99.90;;;;;;5112502;28;20248;-49
2022/10/16 05:17:35;;;;;;;30.92;10.05;;;13.40;99.90;;;;;;5112534;28;20283;-49
2022/10/16 05:20:00;;;;;;;1.98;1.63;;;13.30;99.90;;;;;;5112728;28;20253;-50
2022/10/16 05:22:26;;;;;;;6.93;3.58;;;13.30;99.90;;;;;;5112471;28;20656;-50
2022/10/16 05:24:51;;;;;;;5.50;2.17;;;13.30;99.90;;;;;;5112327;28;20190;-49
2022/10/16 05:27:20;;;;;;;3.53;2.38;;;13.30;99.90;;;;;;5112314;28;20191;-49
2022/10/16 05:29:46;;;;;;;6.68;2.63;;;13.30;99.90;;;;;;5112340;28;20165;-49
2022/10/16 05:32:13;;;;;;;21.70;8.05;;;13.30;99.90;;;;;;5112532;28;20230;-49
2022/10/16 05:34:38;;;;;;;4.40;2.47;;;13.40;99.90;;;;;;5112266;28;20160;-49
2022/10/16 05:37:04;;;;;;;4.13;2.25;;;13.40;99.90;;;;;;5094268;28;20674;-49
2022/10/16 05:39:29;;;;;;;6.18;2.70;;;13.40;99.90;;;;;;5112166;28;20165;-49
2022/10/16 05:41:55;;;;;;;5.28;2.35;;;13.40;99.90;;;;;;5112162;28;20232;-49
2022/10/16 05:44:20;;;;;;;27.63;9.18;;;13.40;99.90;;;;;;5112145;28;20243;-49
2022/10/16 05:46:46;;;;;;;4.28;2.67;;;13.40;99.90;;;;;;5112500;28;20274;-49
2022/10/16 05:49:12;;;;;;;7.30;3.47;;;13.50;99.90;;;;;;5112178;28;20254;-49
2022/10/16 05:51:37;;;;;;;3.45;2.05;;;13.50;99.90;;;;;;5112184;28;20232;-50
2022/10/16 05:54:03;;;;;;;9.52;4.43;;;13.60;99.90;;;;;;5112445;28;20566;-49
2022/10/16 05:56:29;;;;;;;1.45;1.30;;;13.60;99.90;;;;;;5112205;28;20684;-49
2022/10/16 05:58:55;;;;;;;3.20;1.88;;;13.60;99.90;;;;;;5112041;28;20587;-49
2022/10/16 06:01:23;;;;;;;2.08;1.60;;;13.60;99.90;;;;;;5114840;28;20237;-49
2022/10/16 06:03:50;;;;;;;1.90;1.60;;;13.60;99.90;;;;;;5116163;28;20153;-50
2022/10/16 06:06:18;;;;;;;5.35;1.80;;;13.60;99.90;;;;;;5116167;28;20172;-49
2022/10/16 06:08:47;;;;;;;19.75;7.80;;;13.60;99.90;;;;;;5116238;28;20177;-50
2022/10/16 06:11:18;;;;;;;9.65;3.85;;;13.70;99.90;;;;;;5116036;28;20563;-48
2022/10/16 06:13:45;;;;;;;4.47;2.72;;;13.60;99.90;;;;;;5115873;28;20530;-50
2022/10/16 06:16:12;;;;;;;5.00;2.88;;;13.60;99.90;;;;;;5116127;28;20567;-49
2022/10/16 06:18:38;;;;;;;8.30;3.35;;;13.60;99.90;;;;;;5116078;28;20173;-49
2022/10/16 06:21:16;;;;;;;2.90;1.90;;;13.60;99.90;;;;;;5116093;28;20569;-49
2022/10/16 06:23:42;;;;;;;1.65;1.42;;;13.70;99.90;;;;;;5097579;28;20217;-50
2022/10/16 06:26:12;;;;;;;2.80;1.95;;;13.60;99.90;;;;;;5115940;28;20164;-49
2022/10/16 06:28:38;;;;;;;4.93;2.70;;;13.70;99.90;;;;;;5115511;28;20574;-49
2022/10/16 06:31:05;;;;;;;5.55;3.38;;;13.70;99.90;;;;;;5115901;28;20165;-50
2022/10/16 06:33:31;;;;;;;4.07;2.58;;;13.70;99.90;;;;;;5115728;28;20639;-49
2022/10/16 06:36:05;;;;;;;4.13;2.70;;;13.80;99.90;;;;;;5115545;28;20186;-50
2022/10/16 06:38:31;;;;;;;3.88;2.03;;;13.90;99.90;;;;;;5115854;28;20171;-49
2022/10/16 06:40:58;;;;;;;4.68;2.80;;;13.90;99.90;;;;;;5115300;28;20291;-50
2022/10/16 06:43:23;;;;;;;4.68;2.60;;;14.00;99.90;;;;;;5115378;28;20169;-50
2022/10/16 06:45:56;;;;;;;2.08;1.90;;;14.10;99.90;;;;;;5115554;28;20176;-50
2022/10/16 06:48:23;;;;;;;4.68;2.20;;;14.20;99.90;;;;;;5115518;28;20194;-49
2022/10/16 06:51:19;;;;;;;4.75;2.35;;;14.20;99.90;;;;;;5115440;28;20165;-49
2022/10/16 06:53:48;;;;;;;7.38;3.13;;;14.20;99.90;;;;;;5098382;28;20184;-51
2022/10/16 06:56:21;;;;;;;5.22;2.58;;;14.30;99.90;;;;;;5115374;28;20557;-50
2022/10/16 06:58:48;;;;;;;8.30;3.40;;;14.40;99.90;;;;;;5114923;28;20615;-50
2022/10/16 07:01:15;;;;;;;12.63;4.20;;;14.40;99.90;;;;;;5114996;28;20250;-50
2022/10/16 07:03:42;;;;;;;7.28;3.05;;;14.50;99.90;;;;;;5114942;28;20175;-51
2022/10/16 07:06:10;;;;;;;10.02;3.30;;;14.40;99.90;;;;;;5114947;28;20173;-50
2022/10/16 07:08:37;;;;;;;12.90;4.35;;;14.50;99.90;;;;;;5115137;28;20259;-49
2022/10/16 07:11:06;;;;;;;7.03;3.22;;;14.40;99.90;;;;;;5096401;28;20540;-51
2022/10/16 07:13:36;;;;;;;4.68;2.10;;;14.40;99.90;;;;;;5114336;28;20587;-50
2022/10/16 07:16:10;;;;;;;3.60;1.50;;;14.40;99.90;;;;;;5115019;28;20161;-51
2022/10/16 07:18:36;;;;;;;2.47;1.50;;;14.40;99.90;;;;;;5114660;28;20187;-51
2022/10/16 07:21:09;;;;;;;3.10;1.50;;;14.30;99.90;;;;;;5114932;28;20200;-50
2022/10/16 07:23:35;;;;;;;2.75;1.23;;;14.30;99.90;;;;;;5114695;28;20164;-50
2022/10/16 07:26:01;;;;;;;2.28;1.30;;;14.40;99.90;;;;;;5114878;28;20192;-50
2022/10/16 07:28:27;;;;;;;2.22;1.23;;;14.50;99.90;;;;;;5114531;28;20261;-51
2022/10/16 07:30:52;;;;;;;2.00;1.30;;;14.50;99.90;;;;;;5114489;28;20168;-50
2022/10/16 07:33:18;;;;;;;2.28;1.23;;;14.60;99.90;;;;;;5114516;28;20176;-48
2022/10/16 07:35:51;;;;;;;3.70;1.50;;;14.50;99.90;;;;;;5114067;28;20165;-50
2022/10/16 07:38:18;;;;;;;3.88;1.33;;;14.50;99.90;;;;;;5113989;28;20171;-50
2022/10/16 07:40:44;;;;;;;1.30;1.10;;;14.50;99.90;;;;;;5113728;28;20704;-51
2022/10/16 07:43:10;;;;;;;1.92;1.40;;;14.40;99.90;;;;;;5114165;28;20709;-50
2022/10/16 07:45:36;;;;;;;3.10;1.38;;;14.30;99.90;;;;;;5114034;28;20218;-50
2022/10/16 07:48:01;;;;;;;2.28;1.30;;;14.30;99.90;;;;;;5113941;28;20172;-51
2022/10/16 07:50:27;;;;;;;1.58;1.25;;;14.30;99.90;;;;;;5113518;28;20176;-50
2022/10/16 07:52:52;;;;;;;2.00;1.40;;;14.50;99.90;;;;;;5113664;28;20169;-49
2022/10/16 07:55:18;;;;;;;3.03;1.20;;;14.70;99.90;;;;;;5113965;28;20180;-51
2022/10/16 07:57:43;;;;;;;3.70;1.10;;;14.80;99.90;;;;;;5113497;28;20219;-51
2022/10/16 08:00:13;;;;;;;2.65;1.33;;;14.90;99.90;;;;;;5113585;28;20270;-50
2022/10/16 08:02:39;;;;;;;3.10;1.25;;;15.10;99.90;;;;;;5113811;28;20533;-50
2022/10/16 08:05:06;;;;;;;3.05;1.73;;;15.20;99.90;;;;;;5113942;28;20165;-50
2022/10/16 08:07:31;;;;;;;4.25;1.42;;;15.20;99.90;;;;;;5114135;28;20161;-50
2022/10/16 08:09:58;;;;;;;3.47;1.48;;;15.40;99.90;;;;;;5113655;28;20157;-50
2022/10/16 08:12:24;;;;;;;5.72;1.50;;;15.50;99.90;;;;;;5113560;28;20695;-51
2022/10/16 08:14:50;;;;;;;4.15;1.25;;;15.60;99.90;;;;;;5113391;28;20305;-49
2022/10/16 08:17:15;;;;;;;4.60;1.30;;;15.70;99.90;;;;;;5113786;28;20172;-50
2022/10/16 08:19:45;;;;;;;3.58;1.55;;;15.70;99.90;;;;;;5113394;28;20504;-49
2022/10/16 08:22:10;;;;;;;4.45;1.13;;;15.90;99.90;;;;;;5113470;28;20187;-50
2022/10/16 08:24:36;;;;;;;2.58;1.10;;;16.00;99.90;;;;;;5112955;28;20647;-49
2022/10/16 08:27:02;;;;;;;3.50;1.50;;;16.10;99.90;;;;;;5113853;28;20233;-49
2022/10/16 08:29:28;;;;;;;3.08;1.05;;;16.10;99.90;;;;;;5113197;28;20161;-50
2022/10/16 08:31:54;;;;;;;1.30;1.20;;;16.20;99.90;;;;;;5112937;28;20171;-51
2022/10/16 08:34:19;;;;;;;3.97;1.30;;;16.20;99.90;;;;;;5112939;28;20662;-50
2022/10/16 08:36:45;;;;;;;2.40;1.33;;;16.20;99.90;;;;;;5112738;28;20214;-49
2022/10/16 08:39:10;;;;;;;1.23;1.02;;;16.30;99.90;;;;;;5113015;28;20157;-49
2022/10/16 08:41:48;;;;;;;3.38;1.40;;;16.40;99.90;;;;;;5112920;28;20204;-48
2022/10/16 08:44:30;;;;;;;4.45;0.98;;;16.40;99.90;;;;;;5112952;28;20183;-49
2022/10/16 08:47:24;;;;;;;1.48;1.00;;;16.50;99.90;;;;;;5112893;28;20191;-49
2022/10/16 08:50:00;;;;;;;2.30;1.48;;;16.60;99.90;;;;;;5112916;28;20223;-49
2022/10/16 08:52:35;;;;;;;4.20;1.17;;;16.60;99.90;;;;;;5112879;28;20163;-49
2022/10/16 08:55:01;;;;;;;4.35;0.98;;;16.50;99.90;;;;;;5112970;28;20697;-49
2022/10/16 08:57:27;;;;;;;2.55;1.10;;;16.60;99.90;;;;;;5112408;28;20227;-48
2022/10/16 09:00:00;;;;;;;3.03;1.05;;;16.70;99.90;;;;;;5112707;28;20275;-49
2022/10/16 09:02:38;;;;;;;1.50;0.82;;;16.80;99.90;;;;;;5094546;28;20199;-49
2022/10/16 09:05:35;;;;;;;2.33;1.25;;;17.00;99.90;;;;;;5112566;28;20162;-48
2022/10/16 09:08:38;;;;;;;2.08;1.13;;;17.10;99.90;;;;;;5112855;28;20176;-48
2022/10/16 09:11:28;;;;;;;0.98;0.85;;;17.20;99.90;;;;;;5112541;28;20233;-48
2022/10/16 09:14:05;;;;;;;1.48;0.80;;;17.20;99.90;;;;;;5112548;28;20168;-49
2022/10/16 09:16:43;;;;;;;3.97;1.17;;;17.40;99.90;;;;;;5112922;28;20171;-50
2022/10/16 09:19:25;;;;;;;3.83;1.20;;;17.30;99.90;;;;;;5111638;28;20616;-50
2022/10/16 09:21:52;;;;;;;2.88;1.33;;;17.30;99.90;;;;;;5112341;28;20203;-50
2022/10/16 09:24:21;;;;;;;2.42;1.02;;;17.40;99.90;;;;;;5112580;28;20173;-50
2022/10/16 09:26:47;;;;;;;0.75;0.75;;;17.40;99.90;;;;;;5112364;28;20172;-50
2022/10/16 09:29:14;;;;;;;1.95;0.77;;;17.40;99.90;;;;;;5112344;28;20172;-49
2022/10/16 09:31:40;;;;;;;2.40;1.48;;;17.50;99.90;;;;;;5112245;28;20169;-50
2022/10/16 09:34:09;;;;;;;1.20;0.90;;;17.50;99.90;;;;;;5112064;28;20209;-50
2022/10/16 09:36:42;;;;;;;3.95;0.90;;;17.50;99.90;;;;;;5111749;28;20182;-50
2022/10/16 09:39:11;;;;;;;2.22;1.42;;;17.60;99.90;;;;;;5112236;28;20157;-50
2022/10/16 09:41:44;;;;;;;3.25;1.20;;;17.40;99.90;;;;;;5112278;28;20223;-50
2022/10/16 09:44:27;;;;;;;4.07;1.05;;;17.40;99.90;;;;;;5112240;28;20624;-50
2022/10/16 09:47:13;;;;;;;6.68;1.30;;;17.30;99.90;;;;;;5112048;28;20175;-50
2022/10/16 09:49:38;;;;;;;2.50;1.05;;;17.50;99.90;;;;;;5112436;28;20160;-50
2022/10/16 09:52:12;;;;;;;4.95;1.10;;;17.50;99.90;;;;;;5112098;28;20191;-50
2022/10/16 09:54:53;;;;;;;1.38;0.95;;;17.40;99.90;;;;;;5112093;28;20265;-48
2022/10/16 09:57:19;;;;;;;2.28;0.93;;;17.40;99.90;;;;;;5111918;28;20203;-50
2022/10/16 09:59:49;;;;;;;6.55;1.20;;;17.40;99.90;;;;;;5111977;28;20249;-48
2022/10/16 10:02:17;;;;;;;4.88;1.13;;;17.50;99.90;;;;;;5111970;28;20172;-49
2022/10/16 10:04:53;;;;;;;2.38;0.93;;;17.40;99.90;;;;;;5112074;28;20161;-49
2022/10/16 10:07:26;;;;;;;1.63;0.93;;;17.70;99.90;;;;;;5112262;28;20574;-49
2022/10/16 10:09:53;;;;;;;2.40;0.90;;;17.70;99.90;;;;;;5112129;28;20169;-50
2022/10/16 10:12:32;;;;;;;2.80;0.90;;;17.80;99.90;;;;;;5112088;28;20234;-49
2022/10/16 10:15:03;;;;;;;5.20;1.15;;;17.90;99.90;;;;;;5112225;28;20173;-50
2022/10/16 10:17:29;;;;;;;1.05;0.63;;;17.80;99.90;;;;;;5112345;28;20168;-48
2022/10/16 10:20:01;;;;;;;2.17;1.38;;;17.60;99.90;;;;;;5111855;28;20203;-49
2022/10/16 10:22:31;;;;;;;1.75;1.20;;;17.70;99.90;;;;;;5112234;28;20200;-50
2022/10/16 10:25:08;;;;;;;3.75;1.17;;;18.80;99.90;;;;;;5111961;28;20161;-48
2022/10/16 10:27:55;;;;;;;4.03;1.33;;;17.90;99.90;;;;;;5111862;28;20173;-49
2022/10/16 10:30:26;;;;;;;1.38;0.75;;;18.10;99.90;;;;;;5111879;28;20168;-48
2022/10/16 10:33:01;;;;;;;5.82;1.15;;;18.10;99.90;;;;;;5111653;28;20153;-49
2022/10/16 10:35:41;;;;;;;1.15;1.00;;;18.00;99.90;;;;;;5111758;28;20249;-49
2022/10/16 10:38:46;;;;;;;1.80;1.08;;;18.00;99.90;;;;;;5111725;28;20602;-50
2022/10/16 10:41:58;;;;;;;2.25;1.00;;;17.90;99.90;;;;;;5111935;28;20208;-50
2022/10/16 10:44:30;;;;;;;0.80;0.77;;;17.90;99.90;;;;;;5111743;28;20169;-50
2022/10/16 10:47:20;;;;;;;2.78;0.95;;;17.90;99.90;;;;;;5113664;28;20167;-49
2022/10/16 10:50:06;;;;;;;1.25;0.80;;;17.80;99.90;;;;;;5115377;28;20156;-48
2022/10/16 10:52:35;;;;;;;1.98;0.88;;;17.80;99.90;;;;;;5115769;28;20674;-49
2022/10/16 10:55:14;;;;;;;2.13;1.15;;;17.90;99.90;;;;;;5115642;28;20210;-49
2022/10/16 10:58:05;;;;;;;3.78;1.05;;;18.00;99.90;;;;;;5115051;28;20265;-49
2022/10/16 11:00:47;;;;;;;2.08;1.10;;;18.00;99.90;;;;;;5097032;28;20616;-49
2022/10/16 11:03:28;;;;;;;1.65;1.10;;;17.90;99.90;;;;;;5115341;28;20234;-50
2022/10/16 11:06:02;;;;;;;2.75;1.00;;;17.90;99.90;;;;;;5115278;28;20256;-50
2022/10/16 11:08:49;;;;;;;1.75;1.20;;;17.80;99.90;;;;;;5115381;28;20179;-48
2022/10/16 11:11:30;;;;;;;2.58;1.20;;;18.00;99.90;;;;;;5115103;28;20157;-49
2022/10/16 11:14:19;;;;;;;2.90;1.63;;;18.30;99.90;;;;;;5114988;28;20256;-49
2022/10/16 11:17:10;;;;;;;2.13;1.15;;;18.20;99.90;;;;;;5114675;28;20591;-50
2022/10/16 11:19:57;;;;;;;2.05;1.02;;;18.20;99.90;;;;;;5114735;28;20218;-49
2022/10/16 11:22:47;;;;;;;3.65;1.05;;;18.10;99.90;;;;;;5114952;28;20180;-49
2022/10/16 11:25:29;;;;;;;1.58;1.10;;;17.40;99.90;;;;;;5114628;28;20192;-49
2022/10/16 11:28:31;;;;;;;2.55;0.85;;;18.00;99.90;;;;;;5114286;28;20628;-50
2022/10/16 11:31:22;;;;;;;2.53;1.20;;;18.00;99.90;;;;;;5114510;28;20229;-49
2022/10/16 11:33:47;;;;;;;2.22;1.17;;;18.40;99.90;;;;;;5096200;28;20243;-49
2022/10/16 11:36:19;;;;;;;2.22;1.17;;;18.40;99.90;;;;;;5114638;28;20165;-49
2022/10/16 11:39:00;;;;;;;3.22;1.10;;;18.30;99.90;;;;;;5114371;28;20257;-49
2022/10/16 11:41:44;;;;;;;1.60;1.10;;;18.10;99.90;;;;;;5114235;28;20279;-50
2022/10/16 11:44:42;;;;;;;1.15;1.05;;;18.20;99.90;;;;;;5114442;28;20260;-49
2022/10/16 11:47:33;;;;;;;2.10;1.20;;;18.30;99.90;;;;;;5114152;28;20528;-50
2022/10/16 11:50:04;;;;;;;3.72;1.25;;;18.50;99.90;;;;;;5114732;28;20157;-49
2022/10/16 11:53:07;;;;;;;2.72;0.88;;;18.50;99.90;;;;;;5114433;28;20242;-49
2022/10/16 11:55:43;;;;;;;2.03;0.90;;;18.70;99.90;;;;;;5114033;28;20169;-50
2022/10/16 11:58:13;;;;;;;2.85;1.00;;;18.80;99.90;;;;;;5113112;28;20220;-50
2022/10/16 12:01:09;;;;;;;1.52;1.25;;;19.00;99.90;;;;;;5113905;28;20246;-50
2022/10/16 12:03:53;;;;;;;0.80;0.70;;;18.80;99.90;;;;;;5113846;28;20632;-49
2022/10/16 12:06:33;;;;;;;2.90;1.15;;;18.70;99.90;;;;;;5113810;28;20164;-49
2022/10/16 12:09:01;;;;;;;4.47;1.00;;;18.70;99.90;;;;;;5114118;28;20168;-50
2022/10/16 12:11:26;;;;;;;2.78;1.10;;;18.60;99.90;;;;;;5113725;28;20169;-49
2022/10/16 12:14:03;;;;;;;1.15;0.90;;;18.60;99.90;;;;;;5113604;28;20163;-50
2022/10/16 12:16:29;;;;;;;1.10;0.90;;;18.50;99.90;;;;;;5113992;28;20209;-50
2022/10/16 12:19:12;;;;;;;2.13;1.30;;;18.50;99.90;;;;;;5113827;28;20644;-50
2022/10/16 12:21:38;;;;;;;0.80;0.80;;;18.50;99.90;;;;;;5113537;28;20226;-50
2022/10/16 12:24:04;;;;;;;2.40;1.00;;;18.50;99.90;;;;;;5113621;28;20165;-50
2022/10/16 12:26:33;;;;;;;2.85;1.20;;;18.60;99.90;;;;;;5113818;28;20663;-50
2022/10/16 12:29:37;;;;;;;0.70;0.70;;;18.80;99.90;;;;;;5113967;28;20195;-50
2022/10/16 12:32:06;;;;;;;1.40;1.08;;;19.00;99.90;;;;;;5109475;28;20180;-49
2022/10/16 12:34:36;;;;;;;2.78;1.20;;;19.20;99.90;;;;;;5113496;28;20207;-49
2022/10/16 12:37:13;;;;;;;4.18;1.02;;;19.20;99.90;;;;;;5113334;28;20255;-49
2022/10/16 12:39:39;;;;;;;2.90;1.10;;;19.00;99.90;;;;;;5113199;28;20210;-50
2022/10/16 12:42:19;;;;;;;1.33;0.85;;;19.00;99.90;;;;;;5113136;28;20211;-50
2022/10/16 12:44:45;;;;;;;3.00;1.27;;;19.00;99.90;;;;;;5094775;28;20682;-50
2022/10/16 12:47:32;;;;;;;2.13;1.00;;;19.00;99.90;;;;;;5113116;28;20200;-50
2022/10/16 12:49:58;;;;;;;2.35;1.08;;;19.10;99.90;;;;;;5113457;28;20168;-49
2022/10/16 12:52:34;;;;;;;1.60;0.90;;;19.30;99.90;;;;;;5112846;28;20165;-50
2022/10/16 12:55:00;;;;;;;2.55;1.05;;;19.40;99.90;;;;;;5113262;28;20161;-50
2022/10/16 12:57:35;;;;;;;1.77;0.73;;;19.30;99.90;;;;;;5112646;28;20240;-49
2022/10/16 13:00:03;;;;;;;1.48;0.88;;;19.30;99.90;;;;;;5113283;28;20208;-50
2022/10/16 13:02:47;;;;;;;1.48;1.08;;;19.50;99.90;;;;;;5113176;28;20156;-50
2022/10/16 13:05:41;;;;;;;2.15;1.02;;;19.70;99.90;;;;;;5094448;28;20534;-49
2022/10/16 13:08:33;;;;;;;1.70;0.88;;;19.80;99.90;;;;;;5112817;28;20172;-50